Time;durP1;ratioP1;P1;durP2;ratioP2;P2;SDS_P1;SDS_P2;PMS_P1;PMS_P2;Temp;Humidity;BMP_temperature;BMP_pressure;BME280_temperature;BME280_humidity;BME280_pressure;Samples;Min_cycle;Max_cycle;Signal;HPM_P1;HPM_P2
2022/05/05 00:02:08;;;;;;;10.63;5.80;;;8.30;99.90;;;;;;5111920;28;20396;-77
2022/05/05 00:04:34;;;;;;;11.03;5.90;;;8.30;99.90;;;;;;5093546;28;20765;-77
2022/05/05 00:07:03;;;;;;;10.45;5.95;;;8.30;99.90;;;;;;5092477;28;20439;-77
2022/05/05 00:09:29;;;;;;;9.35;5.70;;;8.30;99.90;;;;;;5111690;28;20431;-77
2022/05/05 00:14:40;;;;;;;11.38;5.88;;;8.30;99.90;;;;;;5093263;28;20412;-77
2022/05/05 00:17:09;;;;;;;11.13;5.88;;;8.30;99.90;;;;;;5111442;28;20423;-77
2022/05/05 00:19:41;;;;;;;12.43;6.07;;;8.30;99.90;;;;;;5111029;28;20906;-77
2022/05/05 00:22:07;;;;;;;11.05;5.95;;;8.30;99.90;;;;;;5110403;28;20449;-76
2022/05/05 00:24:33;;;;;;;10.20;5.20;;;8.20;99.90;;;;;;5092046;28;20400;-77
2022/05/05 00:26:59;;;;;;;8.88;5.28;;;8.30;99.90;;;;;;5111052;28;20968;-77
2022/05/05 00:29:25;;;;;;;10.35;5.18;;;8.20;99.90;;;;;;5111078;28;20471;-77
2022/05/05 00:31:51;;;;;;;7.95;5.32;;;8.20;99.90;;;;;;5111040;28;20397;-77
2022/05/05 00:34:18;;;;;;;9.30;5.70;;;8.20;99.90;;;;;;5111040;28;20396;-77
2022/05/05 00:36:44;;;;;;;11.57;5.35;;;8.20;99.90;;;;;;5110919;28;21412;-77
2022/05/05 00:39:13;;;;;;;10.27;5.53;;;8.20;99.90;;;;;;5093159;28;20449;-76
2022/05/05 00:41:44;;;;;;;9.30;5.57;;;8.20;99.90;;;;;;5093040;28;20423;-77
2022/05/05 00:44:10;;;;;;;12.27;5.63;;;8.10;99.90;;;;;;5110656;28;20407;-76
2022/05/05 00:46:36;;;;;;;9.73;5.55;;;8.10;99.90;;;;;;5110955;28;20407;-77
2022/05/05 00:49:02;;;;;;;10.77;5.70;;;8.10;99.90;;;;;;5111035;28;20397;-77
2022/05/05 00:51:28;;;;;;;10.35;4.90;;;8.10;99.90;;;;;;5110816;28;20449;-77
2022/05/05 00:53:55;;;;;;;11.00;6.15;;;8.10;99.90;;;;;;5110591;28;20954;-77
2022/05/05 00:56:22;;;;;;;12.20;6.47;;;8.10;99.90;;;;;;5110519;28;20401;-77
2022/05/05 00:58:48;;;;;;;11.68;6.70;;;8.10;99.90;;;;;;5110505;28;20893;-77
2022/05/05 01:01:19;;;;;;;10.65;6.70;;;8.10;99.90;;;;;;5110532;28;20404;-76
2022/05/05 01:03:45;;;;;;;11.20;6.55;;;8.10;99.90;;;;;;5109710;28;20407;-77
2022/05/05 01:06:12;;;;;;;11.73;6.78;;;8.10;99.90;;;;;;5110327;28;20400;-77
2022/05/05 01:08:38;;;;;;;11.07;6.63;;;8.20;99.90;;;;;;5092418;28;20428;-77
2022/05/05 01:11:04;;;;;;;10.57;6.15;;;8.20;99.90;;;;;;5110177;28;20757;-77
2022/05/05 01:13:31;;;;;;;10.52;6.35;;;8.10;99.90;;;;;;5110196;28;20408;-76
2022/05/05 01:15:58;;;;;;;9.65;5.88;;;8.20;99.90;;;;;;5092277;28;20408;-77
2022/05/05 01:18:24;;;;;;;11.52;6.30;;;8.20;99.90;;;;;;5110487;28;20404;-77
2022/05/05 01:20:54;;;;;;;12.93;6.78;;;8.20;99.90;;;;;;5110332;28;20408;-77
2022/05/05 01:23:20;;;;;;;11.07;6.43;;;8.20;99.90;;;;;;5091827;28;20399;-76
2022/05/05 01:28:32;;;;;;;12.67;6.10;;;8.10;99.90;;;;;;5110132;28;20482;-77
2022/05/05 01:30:59;;;;;;;10.83;5.80;;;8.20;99.90;;;;;;5110116;28;20750;-76
2022/05/05 01:33:26;;;;;;;12.20;6.22;;;8.10;99.90;;;;;;5092064;28;20416;-76
2022/05/05 01:35:57;;;;;;;11.93;6.60;;;8.20;99.90;;;;;;5109721;28;20403;-76
2022/05/05 01:38:25;;;;;;;12.13;6.35;;;8.10;99.90;;;;;;5109891;28;20403;-76
2022/05/05 01:40:51;;;;;;;11.23;6.20;;;8.10;99.90;;;;;;5091790;28;20411;-77
2022/05/05 01:43:18;;;;;;;10.98;5.97;;;8.10;99.90;;;;;;5110034;28;20397;-77
2022/05/05 01:45:44;;;;;;;10.60;5.93;;;8.10;99.90;;;;;;5110064;28;20400;-77
2022/05/05 01:48:10;;;;;;;9.48;6.75;;;8.10;99.90;;;;;;5109649;28;20474;-77
2022/05/05 01:50:37;;;;;;;13.02;6.95;;;8.10;99.90;;;;;;5109306;28;20974;-77
2022/05/05 01:53:03;;;;;;;11.77;7.32;;;8.10;99.90;;;;;;5091538;28;20407;-76
2022/05/05 01:55:30;;;;;;;11.85;7.15;;;8.00;99.90;;;;;;5109825;28;20396;-76
2022/05/05 01:57:57;;;;;;;12.07;6.90;;;8.00;99.90;;;;;;5091044;28;20404;-77
2022/05/05 02:00:23;;;;;;;10.15;7.10;;;8.00;99.90;;;;;;5091413;28;20479;-77
2022/05/05 02:02:49;;;;;;;14.23;7.70;;;8.00;99.90;;;;;;5109669;28;20742;-77
2022/05/05 02:05:16;;;;;;;14.60;7.83;;;8.00;99.90;;;;;;5109292;28;20807;-77
2022/05/05 02:07:43;;;;;;;12.27;7.03;;;7.90;99.90;;;;;;5087030;28;20453;-76
2022/05/05 02:10:14;;;;;;;13.03;7.83;;;7.90;99.90;;;;;;5097599;28;20443;-77
2022/05/05 02:12:41;;;;;;;14.25;7.85;;;7.90;99.90;;;;;;5109152;28;20403;-76
2022/05/05 02:15:08;;;;;;;13.90;8.23;;;7.80;99.90;;;;;;5108942;28;20958;-76
2022/05/05 02:17:39;;;;;;;13.50;7.70;;;7.90;99.90;;;;;;5108696;28;20444;-76
2022/05/05 02:20:06;;;;;;;12.63;7.85;;;7.80;99.90;;;;;;5109056;28;20397;-76
2022/05/05 02:22:32;;;;;;;13.90;8.18;;;7.80;99.90;;;;;;5108862;28;20404;-77
2022/05/05 02:24:59;;;;;;;13.65;8.00;;;7.80;99.90;;;;;;5107929;28;20401;-77
2022/05/05 02:27:24;;;;;;;13.75;7.82;;;7.70;99.90;;;;;;5107857;28;20514;-76
2022/05/05 02:29:50;;;;;;;13.73;8.33;;;7.70;99.90;;;;;;5107978;28;20475;-77
2022/05/05 02:32:17;;;;;;;12.32;8.88;;;7.60;99.90;;;;;;5107493;28;20392;-76
2022/05/05 02:34:44;;;;;;;12.75;8.88;;;7.60;99.90;;;;;;5107768;28;20945;-76
2022/05/05 02:39:53;;;;;;;14.20;8.97;;;7.60;99.90;;;;;;5107633;28;20404;-76
2022/05/05 02:42:20;;;;;;;13.43;8.23;;;7.60;99.90;;;;;;5107434;28;20399;-77
2022/05/05 02:44:46;;;;;;;12.43;7.07;;;7.50;99.90;;;;;;5107458;28;20579;-77
2022/05/05 02:47:12;;;;;;;11.63;7.03;;;7.50;99.90;;;;;;5107745;28;20889;-76
2022/05/05 02:49:38;;;;;;;12.33;7.53;;;7.40;99.90;;;;;;5107610;28;20407;-76
2022/05/05 02:52:07;;;;;;;13.37;7.67;;;7.50;99.90;;;;;;5107560;28;20396;-77
2022/05/05 02:54:51;;;;;;;10.07;7.95;;;7.50;99.90;;;;;;5107223;28;20430;-76
2022/05/05 02:57:22;;;;;;;12.75;8.27;;;7.50;99.90;;;;;;5107420;28;20483;-77
2022/05/05 02:59:49;;;;;;;14.25;7.97;;;7.50;99.90;;;;;;5107561;28;20407;-76
2022/05/05 03:02:15;;;;;;;15.48;8.35;;;7.60;99.90;;;;;;5107856;28;20396;-76
2022/05/05 03:04:40;;;;;;;12.38;7.82;;;7.60;99.90;;;;;;5107540;28;20912;-76
2022/05/05 03:07:06;;;;;;;12.57;7.63;;;7.60;99.90;;;;;;5107133;28;20427;-77
2022/05/05 03:09:32;;;;;;;12.75;7.82;;;7.60;99.90;;;;;;5107270;28;20490;-76
2022/05/05 03:11:57;;;;;;;17.08;8.38;;;7.60;99.90;;;;;;5107479;28;20844;-76
2022/05/05 03:14:23;;;;;;;13.60;9.10;;;7.70;99.90;;;;;;5107344;28;20392;-76
2022/05/05 03:16:50;;;;;;;14.07;8.43;;;7.70;99.90;;;;;;5106930;28;20406;-76
2022/05/05 03:19:15;;;;;;;13.57;9.00;;;7.70;99.90;;;;;;5107390;28;20403;-76
2022/05/05 03:21:41;;;;;;;12.38;8.35;;;7.70;99.90;;;;;;5108078;28;20400;-76
2022/05/05 03:24:07;;;;;;;13.63;8.77;;;7.80;99.90;;;;;;5107738;28;20392;-76
2022/05/05 03:26:32;;;;;;;14.18;8.90;;;7.80;99.90;;;;;;5108983;28;20396;-77
2022/05/05 03:28:58;;;;;;;11.70;8.87;;;7.80;99.90;;;;;;5112346;28;20785;-77
2022/05/05 03:31:23;;;;;;;12.90;9.07;;;7.80;99.90;;;;;;5112247;28;20478;-77
2022/05/05 03:33:49;;;;;;;14.23;8.90;;;7.80;99.90;;;;;;5112409;28;20528;-77
2022/05/05 03:36:15;;;;;;;13.10;9.00;;;7.80;99.90;;;;;;5112554;28;20856;-76
2022/05/05 03:38:41;;;;;;;12.93;8.75;;;7.90;99.90;;;;;;5112011;28;20769;-76
2022/05/05 03:41:07;;;;;;;14.13;8.50;;;7.80;99.90;;;;;;5111913;28;20396;-76
2022/05/05 03:43:33;;;;;;;13.43;8.30;;;7.80;99.90;;;;;;5094479;28;20411;-77
2022/05/05 03:45:59;;;;;;;13.02;8.65;;;7.80;99.90;;;;;;5111866;28;20415;-77
2022/05/05 03:48:25;;;;;;;14.00;9.07;;;7.80;99.90;;;;;;5111856;28;20431;-77
2022/05/05 03:50:50;;;;;;;13.90;8.48;;;7.80;99.90;;;;;;5111332;28;20400;-77
2022/05/05 03:53:16;;;;;;;12.23;8.50;;;7.90;99.90;;;;;;5110805;28;20400;-77
2022/05/05 03:55:41;;;;;;;16.40;9.00;;;7.90;99.90;;;;;;5111302;28;20475;-77
2022/05/05 03:58:07;;;;;;;11.20;8.25;;;7.90;99.90;;;;;;5111826;28;20411;-76
2022/05/05 04:00:33;;;;;;;14.20;8.90;;;7.90;99.90;;;;;;5111909;28;20982;-76
2022/05/05 04:05:43;;;;;;;13.05;8.90;;;8.00;99.90;;;;;;5111652;28;20484;-76
2022/05/05 04:08:09;;;;;;;13.95;8.25;;;8.00;99.90;;;;;;5111645;28;20478;-76
2022/05/05 04:10:34;;;;;;;11.90;8.67;;;8.00;99.90;;;;;;5111672;28;20451;-76
2022/05/05 04:13:00;;;;;;;14.23;8.68;;;8.10;99.90;;;;;;5111387;28;20389;-76
2022/05/05 04:15:26;;;;;;;11.53;8.80;;;8.10;99.90;;;;;;5111637;28;20931;-76
2022/05/05 04:17:51;;;;;;;12.80;8.68;;;8.10;99.90;;;;;;5111086;28;20406;-76
2022/05/05 04:20:18;;;;;;;13.80;8.95;;;8.10;99.90;;;;;;5111263;28;20408;-76
2022/05/05 04:22:44;;;;;;;11.98;8.95;;;8.10;99.90;;;;;;5111587;28;20401;-76
2022/05/05 04:25:12;;;;;;;16.40;9.18;;;8.10;99.90;;;;;;5111294;28;20396;-76
2022/05/05 04:27:41;;;;;;;11.93;9.02;;;8.10;99.90;;;;;;5111356;28;20415;-76
2022/05/05 04:30:10;;;;;;;13.20;9.45;;;8.20;99.90;;;;;;5111546;28;20392;-76
2022/05/05 04:32:36;;;;;;;13.15;9.20;;;8.20;99.90;;;;;;5111372;28;20399;-76
2022/05/05 04:35:02;;;;;;;16.63;10.27;;;8.20;99.90;;;;;;5092731;28;20408;-75
2022/05/05 04:37:28;;;;;;;15.20;9.20;;;8.20;99.90;;;;;;5111380;28;20384;-76
2022/05/05 04:39:54;;;;;;;13.07;9.73;;;8.20;99.90;;;;;;5110884;28;20400;-76
2022/05/05 04:42:19;;;;;;;12.27;9.07;;;8.20;99.90;;;;;;5110782;28;20419;-75
2022/05/05 04:44:45;;;;;;;12.40;9.50;;;8.20;99.90;;;;;;5092610;28;20496;-76
2022/05/05 04:47:11;;;;;;;12.13;9.53;;;8.20;99.90;;;;;;5092856;28;20445;-76
2022/05/05 04:49:38;;;;;;;16.25;9.95;;;8.20;99.90;;;;;;5111269;28;20798;-76
2022/05/05 04:52:04;;;;;;;13.18;9.15;;;8.20;99.90;;;;;;5110451;28;20404;-76
2022/05/05 04:54:30;;;;;;;14.15;9.40;;;8.20;99.90;;;;;;5111016;28;20394;-76
2022/05/05 04:56:55;;;;;;;13.38;9.93;;;8.20;99.90;;;;;;5110757;28;20408;-76
2022/05/05 04:59:21;;;;;;;14.13;9.87;;;8.30;99.90;;;;;;5092778;28;20404;-76
2022/05/05 05:01:47;;;;;;;11.75;9.10;;;8.30;99.90;;;;;;5110787;28;20652;-76
2022/05/05 05:04:13;;;;;;;13.30;9.50;;;8.30;99.90;;;;;;5110442;28;20426;-76
2022/05/05 05:06:38;;;;;;;15.23;9.53;;;8.30;99.90;;;;;;5092790;28;20799;-76
2022/05/05 05:09:04;;;;;;;14.03;9.40;;;8.40;99.90;;;;;;5110518;28;20432;-76
2022/05/05 05:11:30;;;;;;;13.68;9.63;;;8.40;99.90;;;;;;5092346;28;21082;-76
2022/05/05 05:13:55;;;;;;;13.07;9.40;;;8.40;99.90;;;;;;5110382;28;20406;-76
2022/05/05 05:16:21;;;;;;;16.08;9.48;;;8.40;99.90;;;;;;5092029;28;20765;-76
2022/05/05 05:18:47;;;;;;;14.43;9.63;;;8.40;99.90;;;;;;5088826;28;20508;-77
2022/05/05 05:21:13;;;;;;;16.70;10.38;;;8.40;99.90;;;;;;5089961;28;20424;-76
2022/05/05 05:23:38;;;;;;;17.52;10.27;;;8.40;99.90;;;;;;5088650;28;21354;-76
2022/05/05 05:26:04;;;;;;;15.23;9.90;;;8.50;99.90;;;;;;5089335;28;20490;-76
2022/05/05 05:28:30;;;;;;;12.93;9.43;;;8.50;99.90;;;;;;5088632;28;20434;-75
2022/05/05 05:30:55;;;;;;;14.77;10.23;;;8.50;99.90;;;;;;5089318;28;20454;-76
2022/05/05 05:33:21;;;;;;;14.23;10.30;;;8.50;99.90;;;;;;5089833;28;20406;-76
2022/05/05 05:35:46;;;;;;;13.77;10.53;;;8.50;99.90;;;;;;5088802;28;20394;-75
2022/05/05 05:38:13;;;;;;;15.90;9.93;;;8.50;99.90;;;;;;5088711;28;20485;-76
2022/05/05 05:40:39;;;;;;;16.38;10.50;;;8.60;99.90;;;;;;5088745;28;20485;-76
2022/05/05 05:43:05;;;;;;;15.20;9.93;;;8.60;99.90;;;;;;5088493;28;20409;-75
2022/05/05 05:45:30;;;;;;;13.47;9.23;;;8.60;99.90;;;;;;5086595;28;20414;-74
2022/05/05 05:47:56;;;;;;;17.50;10.73;;;8.60;99.90;;;;;;5072027;28;20434;-76
2022/05/05 05:50:22;;;;;;;15.13;9.43;;;8.70;99.90;;;;;;5078246;28;20980;-75
2022/05/05 05:52:48;;;;;;;13.32;9.75;;;8.70;99.90;;;;;;5105640;28;20412;-76
2022/05/05 05:55:14;;;;;;;15.67;9.53;;;8.80;99.90;;;;;;5105524;28;20416;-75
2022/05/05 05:57:39;;;;;;;13.90;9.73;;;8.80;99.90;;;;;;5085914;28;20427;-77
2022/05/05 06:00:06;;;;;;;15.00;10.27;;;8.80;99.90;;;;;;5109012;28;20411;-77
2022/05/05 06:05:16;;;;;;;16.77;9.87;;;9.00;99.90;;;;;;5109392;28;20396;-77
2022/05/05 06:07:42;;;;;;;13.83;9.90;;;9.10;99.90;;;;;;5090925;28;20432;-77
2022/05/05 06:10:08;;;;;;;15.70;9.13;;;9.10;99.90;;;;;;5091393;28;20774;-77
2022/05/05 06:12:33;;;;;;;14.50;9.75;;;9.20;99.90;;;;;;5074059;28;20450;-75
2022/05/05 06:14:59;;;;;;;15.27;9.50;;;9.20;99.90;;;;;;5090989;28;20432;-76
2022/05/05 06:17:25;;;;;;;17.20;10.70;;;9.30;99.90;;;;;;5074376;28;20400;-76
2022/05/05 06:19:50;;;;;;;14.27;9.07;;;9.30;99.90;;;;;;5090616;28;20399;-77
2022/05/05 06:22:16;;;;;;;14.27;8.77;;;9.40;99.90;;;;;;5090711;28;20491;-77
2022/05/05 06:24:41;;;;;;;13.20;8.87;;;9.40;99.90;;;;;;5074527;28;20782;-79
2022/05/05 06:27:07;;;;;;;11.77;8.98;;;9.50;99.90;;;;;;5073229;28;20401;-76
2022/05/05 06:29:33;;;;;;;12.00;8.77;;;9.50;99.90;;;;;;5091003;28;20468;-77
2022/05/05 06:31:58;;;;;;;13.70;9.02;;;9.60;99.90;;;;;;5073822;28;20909;-77
2022/05/05 06:34:24;;;;;;;14.50;8.40;;;9.70;99.90;;;;;;5074025;28;20830;-76
2022/05/05 06:36:49;;;;;;;10.73;7.80;;;9.80;99.90;;;;;;5108745;28;20487;-77
2022/05/05 06:39:15;;;;;;;13.63;8.33;;;9.80;99.90;;;;;;5090826;28;20408;-77
2022/05/05 06:41:40;;;;;;;12.57;9.23;;;9.90;99.90;;;;;;5090372;28;20518;-77
2022/05/05 06:44:06;;;;;;;12.88;9.07;;;9.90;99.90;;;;;;5090340;28;20482;-76
2022/05/05 06:46:32;;;;;;;15.63;9.15;;;10.00;99.90;;;;;;5090657;28;20405;-77
2022/05/05 06:48:58;;;;;;;14.13;8.88;;;10.10;99.90;;;;;;5108667;28;20440;-77
2022/05/05 06:51:24;;;;;;;12.73;8.10;;;10.10;99.90;;;;;;5108679;28;20392;-77
2022/05/05 06:53:51;;;;;;;11.75;7.85;;;10.20;99.90;;;;;;5108472;28;20400;-77
2022/05/05 06:56:17;;;;;;;12.43;8.07;;;10.20;99.90;;;;;;5108288;28;20893;-77
2022/05/05 06:58:42;;;;;;;13.33;7.80;;;10.30;99.90;;;;;;5108394;28;20483;-78
2022/05/05 07:05:23;;;;;;;14.52;8.50;;;10.40;99.90;;;;;;5107787;28;20404;-78
2022/05/05 07:06:37;;;;;;;14.48;9.38;;;10.50;99.90;;;;;;5108874;28;20423;-78
2022/05/05 07:11:47;;;;;;;12.55;8.60;;;10.60;99.90;;;;;;5108242;28;20404;-78
2022/05/05 07:14:13;;;;;;;13.60;8.73;;;10.70;99.90;;;;;;5108253;28;20452;-78
2022/05/05 07:16:38;;;;;;;13.07;8.17;;;10.80;99.90;;;;;;5090099;28;20925;-78
2022/05/05 07:19:04;;;;;;;12.82;8.27;;;10.90;99.90;;;;;;5107865;28;20392;-78
2022/05/05 07:21:30;;;;;;;13.18;8.23;;;10.90;99.90;;;;;;5089828;28;20859;-77
2022/05/05 07:23:56;;;;;;;11.98;7.68;;;11.10;99.90;;;;;;5089471;28;20397;-78
2022/05/05 07:26:22;;;;;;;14.23;8.73;;;11.10;99.90;;;;;;5073296;28;20408;-78
2022/05/05 07:28:47;;;;;;;12.60;8.37;;;11.10;99.90;;;;;;5108049;28;20501;-78
2022/05/05 07:31:13;;;;;;;13.18;7.78;;;11.20;99.90;;;;;;5107788;28;20384;-77
2022/05/05 07:33:38;;;;;;;11.67;6.83;;;11.30;99.90;;;;;;5108430;28;20471;-78
2022/05/05 07:36:04;;;;;;;12.30;6.80;;;11.30;99.90;;;;;;5090259;28;20415;-78
2022/05/05 07:38:30;;;;;;;11.52;6.70;;;11.40;99.90;;;;;;5090160;28;20481;-78
2022/05/05 07:40:56;;;;;;;11.98;7.40;;;11.50;99.90;;;;;;5107832;28;20396;-78
2022/05/05 07:43:23;;;;;;;12.20;7.60;;;11.50;99.90;;;;;;5107764;28;20952;-78
2022/05/05 07:45:49;;;;;;;12.75;7.82;;;11.50;99.90;;;;;;5089892;28;20419;-78
2022/05/05 07:48:15;;;;;;;11.67;7.07;;;11.60;99.90;;;;;;5107893;28;20424;-78
2022/05/05 07:50:40;;;;;;;11.23;6.22;;;11.70;99.90;;;;;;5108018;28;20392;-78
2022/05/05 07:53:06;;;;;;;13.83;6.80;;;11.70;99.90;;;;;;5107583;28;20431;-78
2022/05/05 07:55:31;;;;;;;12.52;6.45;;;11.80;99.90;;;;;;5089246;28;20408;-78
2022/05/05 07:57:57;;;;;;;12.57;7.07;;;11.90;99.90;;;;;;5107909;28;20437;-78
2022/05/05 08:00:23;;;;;;;10.98;6.82;;;12.00;99.90;;;;;;5107801;28;20408;-78
2022/05/05 08:02:49;;;;;;;12.68;7.10;;;12.00;99.90;;;;;;5108089;28;20473;-78
2022/05/05 08:05:15;;;;;;;13.23;7.40;;;12.10;99.90;;;;;;5108028;28;20418;-78
2022/05/05 08:07:45;;;;;;;9.23;6.60;;;12.20;99.90;;;;;;5107979;28;20488;-78
2022/05/05 08:10:11;;;;;;;12.25;7.35;;;12.20;99.90;;;;;;5107704;28;20889;-78
2022/05/05 08:12:37;;;;;;;12.38;6.78;;;12.30;99.90;;;;;;5108795;28;20525;-78
2022/05/05 08:15:04;;;;;;;12.20;7.38;;;12.40;99.90;;;;;;5111503;28;20407;-78
2022/05/05 08:17:33;;;;;;;12.03;7.10;;;12.40;99.90;;;;;;5092790;28;20412;-78
2022/05/05 08:19:59;;;;;;;12.25;7.03;;;12.50;99.90;;;;;;5111420;28;20969;-78
2022/05/05 08:22:24;;;;;;;13.17;7.13;;;12.60;99.90;;;;;;5111759;28;20479;-78
2022/05/05 08:30:19;;;;;;;13.68;6.95;;;12.80;99.90;;;;;;5111594;28;20766;-78
2022/05/05 08:32:44;;;;;;;10.30;6.35;;;12.90;99.90;;;;;;5111239;28;20399;-78
2022/05/05 08:35:10;;;;;;;10.37;6.83;;;13.00;99.90;;;;;;5111350;28;20396;-78
2022/05/05 08:37:36;;;;;;;11.93;6.53;;;13.10;99.90;;;;;;5093016;28;20432;-78
2022/05/05 08:40:02;;;;;;;11.27;6.37;;;13.20;99.90;;;;;;5111269;28;20397;-78
2022/05/05 08:42:28;;;;;;;14.83;6.73;;;13.30;99.90;;;;;;5110899;28;20898;-78
2022/05/05 08:44:53;;;;;;;9.48;5.75;;;13.30;99.90;;;;;;5110785;28;20407;-78
2022/05/05 08:47:23;;;;;;;9.43;6.20;;;13.40;99.90;;;;;;5110940;28;20416;-78
2022/05/05 08:49:49;;;;;;;12.88;6.95;;;13.50;99.90;;;;;;5110900;28;20992;-78
2022/05/05 08:52:21;;;;;;;10.13;5.80;;;13.50;99.90;;;;;;5110721;28;20396;-78
2022/05/05 08:54:48;;;;;;;8.77;6.20;;;13.60;99.60;;;;;;5092084;28;20436;-78
2022/05/05 08:57:14;;;;;;;10.07;6.40;;;13.60;99.80;;;;;;5092732;28;20409;-78
2022/05/05 08:59:40;;;;;;;11.93;5.82;;;13.70;99.50;;;;;;5092349;28;20407;-77
2022/05/05 09:02:05;;;;;;;10.53;6.07;;;13.80;99.40;;;;;;5110601;28;20385;-78
2022/05/05 09:04:31;;;;;;;11.88;6.18;;;13.90;98.90;;;;;;5110762;28;20492;-78
2022/05/05 09:06:57;;;;;;;10.80;6.33;;;14.00;99.40;;;;;;5092342;28;20411;-78
2022/05/05 09:09:31;;;;;;;10.73;6.32;;;14.10;99.00;;;;;;5110924;28;20400;-78
2022/05/05 09:12:14;;;;;;;10.70;6.18;;;14.20;98.60;;;;;;5110607;28;20408;-78
2022/05/05 09:14:43;;;;;;;12.93;6.05;;;14.30;97.90;;;;;;5110755;28;20408;-78
2022/05/05 09:17:10;;;;;;;12.95;5.95;;;14.40;98.10;;;;;;5110308;28;20411;-78
2022/05/05 09:19:38;;;;;;;12.05;6.22;;;14.50;98.20;;;;;;5109481;28;20404;-78
2022/05/05 09:22:08;;;;;;;11.25;5.88;;;14.60;97.80;;;;;;5108966;28;20432;-78
2022/05/05 09:24:40;;;;;;;12.80;6.28;;;14.80;97.60;;;;;;5108631;28;20396;-78
2022/05/05 09:27:25;;;;;;;11.05;6.20;;;14.90;96.90;;;;;;5109332;28;20401;-78
2022/05/05 09:30:14;;;;;;;12.70;5.72;;;15.00;96.90;;;;;;5109211;28;20457;-78
2022/05/05 09:32:42;;;;;;;8.43;5.38;;;15.10;95.90;;;;;;5109277;28;20512;-78
2022/05/05 09:35:15;;;;;;;9.48;5.80;;;15.20;95.80;;;;;;5109079;28;20409;-78
2022/05/05 09:37:45;;;;;;;10.52;4.95;;;15.20;95.30;;;;;;5111200;28;20047;-78
2022/05/05 09:40:13;;;;;;;9.95;4.93;;;15.40;95.30;;;;;;5111278;28;20040;-78
2022/05/05 09:42:43;;;;;;;9.20;4.75;;;15.40;95.70;;;;;;5110051;28;20043;-78
2022/05/05 09:45:18;;;;;;;12.10;4.50;;;15.50;94.90;;;;;;5110315;28;21113;-78
2022/05/05 09:47:49;;;;;;;8.73;4.53;;;15.60;94.20;;;;;;5109986;28;20416;-78
2022/05/05 09:50:17;;;;;;;10.00;5.70;;;15.80;94.80;;;;;;5073460;28;20411;-78
2022/05/05 09:58:16;;;;;;;12.07;6.25;;;16.20;93.50;;;;;;5109577;28;20888;-78
2022/05/05 10:01:04;;;;;;;9.52;5.70;;;16.40;92.90;;;;;;5109734;28;20981;-78
2022/05/05 10:06:36;;;;;;;9.85;5.80;;;16.90;92.90;;;;;;5109202;28;20401;-78
2022/05/05 10:09:07;;;;;;;9.35;5.82;;;17.00;93.10;;;;;;5109393;28;20785;-78
2022/05/05 10:11:34;;;;;;;10.83;5.37;;;17.30;92.40;;;;;;5109712;28;20754;-78
2022/05/05 10:14:01;;;;;;;10.30;6.30;;;17.30;91.80;;;;;;5091083;28;20408;-78
2022/05/05 10:16:27;;;;;;;12.57;5.95;;;17.40;91.50;;;;;;5108772;28;20408;-78
2022/05/05 10:18:53;;;;;;;9.45;6.22;;;17.70;91.90;;;;;;5109042;28;20731;-78
2022/05/05 10:21:44;;;;;;;9.52;6.22;;;17.80;91.00;;;;;;5109418;28;20412;-79
2022/05/05 10:24:19;;;;;;;8.35;5.95;;;18.00;90.60;;;;;;5108941;28;20470;-78
2022/05/05 10:26:50;;;;;;;10.35;6.60;;;18.20;90.40;;;;;;5109106;28;20410;-78
2022/05/05 10:29:31;;;;;;;10.50;6.57;;;18.30;90.00;;;;;;5109011;28;20432;-79
2022/05/05 10:32:21;;;;;;;11.87;6.63;;;18.30;89.10;;;;;;5108974;28;20415;-78
2022/05/05 10:35:10;;;;;;;9.88;6.72;;;18.30;89.40;;;;;;5090325;28;20447;-78
2022/05/05 10:37:37;;;;;;;10.30;6.80;;;18.30;87.30;;;;;;5109119;28;20897;-78
2022/05/05 10:40:08;;;;;;;8.82;7.00;;;18.20;86.60;;;;;;5090232;28;21139;-78
2022/05/05 10:42:40;;;;;;;10.70;6.68;;;18.20;86.30;;;;;;5108773;28;20457;-78
2022/05/05 10:45:16;;;;;;;9.48;6.20;;;18.30;87.70;;;;;;5108573;28;20890;-78
2022/05/05 10:47:50;;;;;;;11.73;6.47;;;18.50;87.90;;;;;;5108867;28;20424;-78
2022/05/05 10:50:28;;;;;;;9.40;6.20;;;18.60;87.10;;;;;;5108895;28;20404;-79
2022/05/05 10:52:54;;;;;;;9.88;5.90;;;18.80;85.30;;;;;;5090022;28;20415;-79
2022/05/05 10:55:45;;;;;;;9.30;6.27;;;18.90;84.90;;;;;;5108566;28;20396;-79
2022/05/05 10:58:12;;;;;;;8.63;6.33;;;18.90;85.30;;;;;;5097047;28;20774;-78
2022/05/05 11:00:44;;;;;;;9.48;6.30;;;19.10;85.10;;;;;;5108576;28;20427;-78
2022/05/05 11:03:10;;;;;;;11.20;6.15;;;19.20;83.80;;;;;;5108427;28;20454;-78
2022/05/05 11:05:39;;;;;;;11.43;7.20;;;19.40;83.90;;;;;;5089944;28;20404;-79
2022/05/05 11:08:17;;;;;;;10.85;7.18;;;19.50;83.60;;;;;;5107954;28;20473;-79
2022/05/05 11:11:40;;;;;;;10.55;6.80;;;19.50;83.40;;;;;;5107854;28;20407;-78
2022/05/05 11:13:45;;;;;;;12.88;7.75;;;19.50;83.40;;;;;;5107978;28;20405;-78
2022/05/05 11:22:27;;;;;;;11.50;7.60;;;19.70;81.80;;;;;;5108036;28;20461;-78
2022/05/05 11:24:53;;;;;;;14.30;7.78;;;19.80;82.00;;;;;;5108085;28;20400;-78
2022/05/05 11:27:23;;;;;;;10.47;7.50;;;19.80;80.20;;;;;;5108342;28;20403;-78
2022/05/05 11:29:56;;;;;;;12.18;7.90;;;19.80;79.90;;;;;;5090012;28;20438;-78
2022/05/05 11:32:30;;;;;;;12.45;7.93;;;19.80;79.20;;;;;;5107781;28;20447;-78
2022/05/05 11:34:56;;;;;;;12.60;7.80;;;19.70;78.80;;;;;;5107923;28;20413;-78
2022/05/05 11:37:26;;;;;;;12.95;7.60;;;19.70;78.10;;;;;;5089970;28;20411;-78
2022/05/05 11:39:51;;;;;;;11.15;7.63;;;19.80;79.10;;;;;;5108138;28;20453;-78
2022/05/05 11:42:18;;;;;;;12.45;7.90;;;20.00;80.80;;;;;;5107911;28;20392;-78
2022/05/05 11:44:45;;;;;;;12.30;7.50;;;20.10;78.20;;;;;;5107607;28;20397;-78
2022/05/05 11:47:16;;;;;;;11.98;7.70;;;20.20;78.90;;;;;;5107972;28;20403;-78
2022/05/05 11:49:46;;;;;;;12.73;8.02;;;20.50;78.40;;;;;;5112418;28;20400;-78
2022/05/05 11:52:16;;;;;;;11.60;7.72;;;20.70;75.60;;;;;;5111902;28;20436;-78
2022/05/05 11:54:44;;;;;;;11.27;8.05;;;20.80;75.80;;;;;;5111860;28;20396;-79
2022/05/05 11:57:10;;;;;;;12.45;7.60;;;21.10;75.10;;;;;;5093647;28;20435;-78
2022/05/05 12:02:21;;;;;;;10.63;7.93;;;21.60;73.80;;;;;;5112162;28;20547;-79
2022/05/05 12:04:52;;;;;;;11.00;7.63;;;21.80;72.40;;;;;;5093575;28;20761;-79
2022/05/05 12:07:21;;;;;;;10.65;8.15;;;21.90;73.30;;;;;;5111631;28;20976;-79
2022/05/05 12:09:54;;;;;;;11.35;8.13;;;22.10;70.50;;;;;;5111775;28;20428;-78
2022/05/05 12:12:27;;;;;;;13.73;8.02;;;22.00;70.50;;;;;;5111553;28;20459;-79
2022/05/05 12:15:06;;;;;;;12.02;8.52;;;22.00;72.00;;;;;;5111793;28;20899;-79
2022/05/05 12:17:39;;;;;;;14.07;8.60;;;22.20;71.00;;;;;;5111573;28;20980;-79
2022/05/05 12:20:07;;;;;;;15.50;8.75;;;22.30;69.50;;;;;;5110682;28;20407;-79
2022/05/05 12:22:37;;;;;;;10.77;8.32;;;22.40;68.10;;;;;;5093479;28;20929;-79
2022/05/05 12:25:13;;;;;;;13.15;8.55;;;22.40;68.00;;;;;;5111029;28;20953;-79
2022/05/05 12:27:39;;;;;;;12.20;8.05;;;22.50;67.70;;;;;;5111035;28;20424;-79
2022/05/05 12:30:06;;;;;;;11.70;8.05;;;22.80;68.70;;;;;;5110981;28;20396;-78
2022/05/05 12:32:32;;;;;;;12.40;7.60;;;22.90;66.50;;;;;;5111558;28;21101;-79
2022/05/05 12:35:06;;;;;;;11.57;8.47;;;22.90;67.10;;;;;;5111083;28;20396;-78
2022/05/05 12:37:32;;;;;;;12.52;7.75;;;22.70;65.80;;;;;;5111247;28;20812;-78
2022/05/05 12:40:01;;;;;;;12.37;8.03;;;22.30;66.00;;;;;;5111138;28;20458;-78
2022/05/05 12:42:48;;;;;;;11.55;7.80;;;21.80;65.60;;;;;;5092757;28;20904;-78
2022/05/05 12:45:24;;;;;;;12.35;7.20;;;21.30;66.00;;;;;;5110985;28;20416;-79
2022/05/05 12:47:51;;;;;;;10.35;6.88;;;21.10;67.50;;;;;;5092376;28;20923;-78
2022/05/05 12:50:32;;;;;;;10.13;7.43;;;21.00;67.50;;;;;;5111047;28;20432;-78
2022/05/05 13:01:23;;;;;;;11.53;7.43;;;21.00;68.20;;;;;;5110272;28;20400;-79
2022/05/05 13:03:49;;;;;;;12.15;7.57;;;21.10;68.10;;;;;;5110681;28;20484;-78
2022/05/05 13:06:15;;;;;;;11.40;7.38;;;21.30;67.50;;;;;;5110487;28;20427;-79
2022/05/05 13:08:41;;;;;;;10.68;7.10;;;21.50;68.40;;;;;;5110322;28;20881;-80
2022/05/05 13:11:06;;;;;;;10.57;7.07;;;21.90;67.80;;;;;;5110455;28;20392;-78
2022/05/05 13:13:32;;;;;;;10.53;7.43;;;22.30;66.90;;;;;;5110203;28;20479;-78
2022/05/05 13:15:58;;;;;;;10.00;7.40;;;22.50;65.60;;;;;;5109643;28;20411;-79
2022/05/05 13:18:24;;;;;;;10.75;7.30;;;22.80;64.70;;;;;;5109115;28;20400;-79
2022/05/05 13:20:49;;;;;;;10.53;7.33;;;23.30;66.20;;;;;;5109229;28;20403;-79
2022/05/05 13:23:15;;;;;;;11.70;7.33;;;23.70;65.70;;;;;;5109302;28;20761;-79
2022/05/05 13:25:40;;;;;;;10.77;6.40;;;24.10;64.10;;;;;;5109639;28;20396;-79
2022/05/05 13:28:07;;;;;;;10.85;7.15;;;24.10;62.50;;;;;;5108950;28;20424;-79
2022/05/05 13:30:33;;;;;;;10.57;7.45;;;24.00;61.60;;;;;;5108702;28;20408;-79
2022/05/05 13:32:58;;;;;;;10.27;7.13;;;23.90;61.90;;;;;;5109013;28;20411;-79
2022/05/05 13:35:24;;;;;;;9.47;6.57;;;23.80;62.10;;;;;;5109592;28;20480;-79
2022/05/05 13:37:50;;;;;;;10.85;6.90;;;23.90;62.10;;;;;;5090468;28;20396;-78